Time;durP1;ratioP1;P1;durP2;ratioP2;P2;SDS_P1;SDS_P2;PMS_P1;PMS_P2;Temp;Humidity;BMP_temperature;BMP_pressure;BME280_temperature;BME280_humidity;BME280_pressure;Samples;Min_cycle;Max_cycle;Signal;HPM_P1;HPM_P2
2022/01/19 00:01:10;;;;;;;;;;;22.00;49.50;;;;;;5136253;27;19972;-42
2022/01/19 00:03:38;;;;;;;;;;;22.00;49.50;;;;;;5135369;27;19923;-43
2022/01/19 00:06:05;;;;;;;;;;;21.90;49.40;;;;;;5135303;27;20400;-41
2022/01/19 00:08:32;;;;;;;;;;;22.00;49.50;;;;;;5121066;27;20332;-42
2022/01/19 00:10:59;;;;;;;;;;;21.90;49.40;;;;;;5114681;28;19928;-42
2022/01/19 00:13:26;;;;;;;;;;;21.90;49.40;;;;;;5114944;28;19924;-41
2022/01/19 00:15:54;;;;;;;;;;;21.90;49.40;;;;;;5114912;28;19924;-40
2022/01/19 00:18:22;;;;;;;;;;;21.90;49.40;;;;;;5114561;28;19924;-41
2022/01/19 00:20:49;;;;;;;;;;;21.90;49.30;;;;;;5114226;28;19977;-41
2022/01/19 00:23:18;;;;;;;;;;;21.90;49.30;;;;;;5123977;27;19923;-42
2022/01/19 00:25:46;;;;;;;;;;;21.90;49.30;;;;;;5134976;27;19933;-41
2022/01/19 00:28:14;;;;;;;;;;;21.90;49.30;;;;;;5134866;27;19972;-41
2022/01/19 00:30:41;;;;;;;;;;;21.90;49.30;;;;;;5135281;27;19977;-40
2022/01/19 00:33:09;;;;;;;;;;;21.90;49.30;;;;;;5134935;27;20014;-40
2022/01/19 00:35:36;;;;;;;;;;;21.90;49.30;;;;;;5134849;27;20401;-41
2022/01/19 00:38:05;;;;;;;;;;;21.90;49.30;;;;;;5115655;27;19969;-41
2022/01/19 00:40:33;;;;;;;;;;;21.90;49.30;;;;;;5134820;27;19924;-42
2022/01/19 00:43:00;;;;;;;;;;;21.90;49.30;;;;;;5134354;27;19923;-40
2022/01/19 00:45:27;;;;;;;;;;;21.90;49.20;;;;;;5116916;28;19958;-40
2022/01/19 00:47:54;;;;;;;;;;;21.90;49.20;;;;;;5116538;28;19979;-41
2022/01/19 00:50:23;;;;;;;;;;;21.90;49.20;;;;;;5134596;28;19972;-41
2022/01/19 00:52:51;;;;;;;;;;;21.90;49.20;;;;;;5133654;28;20349;-41
2022/01/19 00:55:19;;;;;;;;;;;21.90;49.20;;;;;;5134646;28;19953;-41
2022/01/19 00:57:46;;;;;;;;;;;21.90;49.20;;;;;;5134860;28;19958;-41
2022/01/19 01:00:16;;;;;;;;;;;21.80;49.10;;;;;;5134934;28;19924;-41
2022/01/19 01:02:44;;;;;;;;;;;21.90;49.20;;;;;;5134916;28;19932;-41
2022/01/19 01:05:11;;;;;;;;;;;21.80;49.00;;;;;;5135717;28;19930;-43
2022/01/19 01:07:38;;;;;;;;;;;21.80;49.10;;;;;;5133756;28;19923;-43
2022/01/19 01:10:07;;;;;;;;;;;21.80;49.00;;;;;;5096074;28;19953;-41
2022/01/19 01:18:20;;;;;;;;;;;21.80;49.00;;;;;;5051350;28;19933;-40
2022/01/19 01:20:48;;;;;;;;;;;21.80;49.00;;;;;;5035374;28;19926;-43
2022/01/19 01:23:16;;;;;;;;;;;21.80;48.90;;;;;;5030602;28;20035;-41
2022/01/19 01:25:43;;;;;;;;;;;21.80;48.90;;;;;;5031336;28;20012;-43
2022/01/19 01:28:10;;;;;;;;;;;21.80;48.90;;;;;;5031350;28;19925;-40
2022/01/19 01:30:38;;;;;;;;;;;21.80;48.90;;;;;;5031297;28;20012;-47
2022/01/19 01:33:04;;;;;;;;;;;21.80;48.90;;;;;;5031248;28;20373;-40
2022/01/19 01:35:32;;;;;;;;;;;21.80;48.80;;;;;;5031443;28;20015;-49
2022/01/19 01:37:59;;;;;;;;;;;21.80;48.80;;;;;;5030620;28;19925;-47
2022/01/19 01:40:27;;;;;;;;;;;21.80;48.80;;;;;;5031206;28;19929;-48
2022/01/19 01:42:56;;;;;;;;;;;21.80;48.80;;;;;;5031170;28;20016;-43
2022/01/19 01:45:28;;;;;;;;;;;21.80;48.80;;;;;;5031209;28;19971;-43
2022/01/19 01:48:20;;;;;;;;;;;21.80;48.80;;;;;;5031312;28;19929;-46
2022/01/19 01:53:30;;;;;;;;;;;21.80;48.80;;;;;;5057923;28;19935;-41
2022/01/19 01:55:59;;;;;;;;;;;21.70;48.70;;;;;;5117619;28;20335;-43
2022/01/19 01:58:28;;;;;;;;;;;21.70;48.70;;;;;;5117237;28;19928;-43
2022/01/19 02:00:55;;;;;;;;;;;21.80;48.80;;;;;;5117524;28;19924;-44
2022/01/19 02:03:22;;;;;;;;;;;21.70;48.70;;;;;;5117484;28;19928;-42
2022/01/19 02:08:46;;;;;;;;;;;21.70;48.60;;;;;;5113595;28;20386;-42
2022/01/19 02:16:40;;;;;;;;;;;21.70;48.60;;;;;;5096868;28;19971;-42
2022/01/19 02:22:01;;;;;;;;;;;21.70;48.50;;;;;;5116670;28;19930;-41
2022/01/19 02:24:31;;;;;;;;;;;21.70;48.50;;;;;;5125309;27;19973;-42
2022/01/19 02:42:40;;;;;;;;;;;21.70;48.40;;;;;;5116794;28;19928;-43
2022/01/19 02:50:20;;;;;;;;;;;21.70;48.40;;;;;;5116116;28;19924;-41
2022/01/19 02:52:47;;;;;;;;;;;21.70;48.40;;;;;;5115985;28;20014;-42
2022/01/19 02:55:14;;;;;;;;;;;21.70;48.30;;;;;;5116071;27;20343;-43
2022/01/19 02:57:42;;;;;;;;;;;21.70;48.30;;;;;;5116432;28;19967;-42
2022/01/19 03:11:12;;;;;;;;;;;21.70;48.20;;;;;;5134956;27;20011;-43
2022/01/19 03:13:40;;;;;;;;;;;21.70;48.20;;;;;;5136358;27;20391;-42
2022/01/19 03:16:06;;;;;;;;;;;21.70;48.20;;;;;;5136608;27;20014;-43
2022/01/19 03:18:34;;;;;;;;;;;21.70;48.20;;;;;;5136595;27;20358;-41
2022/01/19 03:21:01;;;;;;;;;;;21.70;48.10;;;;;;5135985;27;19972;-42
2022/01/19 03:23:27;;;;;;;;;;;21.70;48.10;;;;;;5136298;27;19985;-42
2022/01/19 03:25:56;;;;;;;;;;;21.70;48.10;;;;;;5135303;27;19923;-41
2022/01/19 03:28:23;;;;;;;;;;;21.70;48.10;;;;;;5135971;27;19924;-41
2022/01/19 03:30:50;;;;;;;;;;;21.70;48.10;;;;;;5136337;27;19966;-42
2022/01/19 03:33:17;;;;;;;;;;;21.70;48.10;;;;;;5135967;27;20386;-42
2022/01/19 03:35:45;;;;;;;;;;;21.70;48.10;;;;;;5135954;27;19977;-41
2022/01/19 03:38:12;;;;;;;;;;;21.60;48.00;;;;;;5136203;27;20268;-42
2022/01/19 03:40:40;;;;;;;;;;;21.70;48.10;;;;;;5135398;27;20288;-41
2022/01/19 03:43:07;;;;;;;;;;;21.60;47.90;;;;;;5135805;27;19948;-41
2022/01/19 03:45:34;;;;;;;;;;;21.70;48.00;;;;;;5135732;27;20409;-41
2022/01/19 03:48:27;;;;;;;;;;;21.60;47.90;;;;;;5136003;27;19958;-41
2022/01/19 03:50:54;;;;;;;;;;;21.60;47.90;;;;;;5135568;27;19923;-42
2022/01/19 03:53:21;;;;;;;;;;;21.60;47.90;;;;;;5135738;27;19968;-42
2022/01/19 03:55:48;;;;;;;;;;;21.60;47.90;;;;;;5134376;27;19981;-41
2022/01/19 03:58:15;;;;;;;;;;;21.60;47.90;;;;;;5135769;27;19924;-43
2022/01/19 04:00:44;;;;;;;;;;;21.60;47.90;;;;;;5135383;27;20447;-39
2022/01/19 04:03:15;;;;;;;;;;;21.60;47.90;;;;;;5135674;27;19967;-42
2022/01/19 04:05:55;;;;;;;;;;;21.60;47.90;;;;;;5135402;27;19985;-42
2022/01/19 04:08:22;;;;;;;;;;;21.60;47.90;;;;;;5135615;27;19966;-41
2022/01/19 04:10:49;;;;;;;;;;;21.60;47.90;;;;;;5134047;27;20022;-41
2022/01/19 04:15:56;;;;;;;;;;;21.60;47.80;;;;;;5135358;27;19923;-41
2022/01/19 04:18:23;;;;;;;;;;;21.60;47.80;;;;;;5134420;27;19976;-43
2022/01/19 04:20:52;;;;;;;;;;;21.60;47.80;;;;;;5134843;27;19924;-40
2022/01/19 04:23:19;;;;;;;;;;;21.60;47.80;;;;;;5135177;27;20355;-41
2022/01/19 04:25:46;;;;;;;;;;;21.60;47.70;;;;;;5134236;27;20009;-42
2022/01/19 04:28:14;;;;;;;;;;;21.60;47.70;;;;;;5134972;27;19924;-41
2022/01/19 04:30:42;;;;;;;;;;;21.60;47.70;;;;;;5134864;27;19982;-41
2022/01/19 04:33:14;;;;;;;;;;;21.60;47.70;;;;;;5134929;27;19931;-42
2022/01/19 04:35:47;;;;;;;;;;;21.60;47.70;;;;;;5135133;27;19927;-46
2022/01/19 05:07:43;;;;;;;;;;;21.60;47.60;;;;;;5134551;28;19931;-39
2022/01/19 05:15:41;;;;;;;;;;;21.60;47.50;;;;;;5114317;28;19924;-40
2022/01/19 05:18:08;;;;;;;;;;;21.60;47.50;;;;;;5114214;28;19969;-41
2022/01/19 05:20:35;;;;;;;;;;;21.60;47.50;;;;;;5113702;28;19924;-43
2022/01/19 05:23:02;;;;;;;;;;;21.60;47.50;;;;;;5113700;28;19967;-47
2022/01/19 05:25:29;;;;;;;;;;;21.60;47.50;;;;;;5114545;28;20350;-41
2022/01/19 05:27:56;;;;;;;;;;;21.60;47.50;;;;;;5134721;27;19945;-42
2022/01/19 05:30:23;;;;;;;;;;;21.60;47.50;;;;;;5138349;27;19923;-42
2022/01/19 05:32:50;;;;;;;;;;;21.50;47.40;;;;;;5138269;27;19937;-42
2022/01/19 05:35:17;;;;;;;;;;;21.60;47.50;;;;;;5138599;27;19969;-40
2022/01/19 05:37:44;;;;;;;;;;;21.60;47.50;;;;;;5138588;27;19969;-39
2022/01/19 05:40:13;;;;;;;;;;;21.60;47.40;;;;;;5138577;27;19928;-40
2022/01/19 05:42:40;;;;;;;;;;;21.60;47.40;;;;;;5137067;27;20034;-42
2022/01/19 05:45:08;;;;;;;;;;;21.60;47.40;;;;;;5138408;27;19928;-40
2022/01/19 05:47:35;;;;;;;;;;;21.60;47.40;;;;;;5138017;27;19923;-41
2022/01/19 05:50:02;;;;;;;;;;;21.60;47.40;;;;;;5137800;27;19952;-40
2022/01/19 05:52:29;;;;;;;;;;;21.60;47.40;;;;;;5137820;27;20017;-41
2022/01/19 05:54:56;;;;;;;;;;;21.50;47.30;;;;;;5119813;27;19929;-40
2022/01/19 05:57:23;;;;;;;;;;;21.50;47.30;;;;;;5137069;27;20294;-41
2022/01/19 05:59:50;;;;;;;;;;;21.50;47.30;;;;;;5138144;27;19923;-42
2022/01/19 06:02:17;;;;;;;;;;;21.60;47.30;;;;;;5137728;27;19952;-42
2022/01/19 06:04:44;;;;;;;;;;;21.50;47.20;;;;;;5138050;27;19923;-41
2022/01/19 06:07:12;;;;;;;;;;;21.50;47.20;;;;;;5137954;27;20035;-40
2022/01/19 06:12:13;;;;;;;;;;;21.50;47.20;;;;;;5136831;27;20010;-41
2022/01/19 06:14:41;;;;;;;;;;;21.50;47.20;;;;;;5137838;27;19974;-42
2022/01/19 06:17:13;;;;;;;;;;;21.50;47.20;;;;;;5137372;27;19923;-42
2022/01/19 06:19:40;;;;;;;;;;;21.60;47.30;;;;;;5137131;27;19982;-43
2022/01/19 06:22:07;;;;;;;;;;;21.50;47.20;;;;;;5137199;27;19981;-47
2022/01/19 06:24:34;;;;;;;;;;;21.50;47.20;;;;;;5137637;27;20268;-41
2022/01/19 06:27:01;;;;;;;;;;;21.50;47.20;;;;;;5136409;27;20010;-41
2022/01/19 06:29:28;;;;;;;;;;;21.50;47.20;;;;;;5137469;27;19923;-41
2022/01/19 06:31:55;;;;;;;;;;;21.50;47.20;;;;;;5137431;27;20323;-44
2022/01/19 06:34:22;;;;;;;;;;;21.50;47.10;;;;;;5137007;27;19976;-45
2022/01/19 06:36:51;;;;;;;;;;;21.50;47.10;;;;;;5136941;27;19923;-43
2022/01/19 06:39:19;;;;;;;;;;;21.50;47.10;;;;;;5136528;27;19959;-44
2022/01/19 06:41:46;;;;;;;;;;;21.50;47.10;;;;;;5135065;27;19966;-42
2022/01/19 06:44:14;;;;;;;;;;;21.50;47.10;;;;;;5136873;27;19989;-42
2022/01/19 06:46:44;;;;;;;;;;;21.50;47.10;;;;;;5137151;27;19923;-44
2022/01/19 06:49:11;;;;;;;;;;;21.50;47.10;;;;;;5136660;27;19924;-43
2022/01/19 06:51:38;;;;;;;;;;;21.50;47.10;;;;;;5136935;27;20006;-44
2022/01/19 06:54:05;;;;;;;;;;;21.50;47.10;;;;;;5136692;27;19931;-43
2022/01/19 06:56:37;;;;;;;;;;;21.50;47.10;;;;;;5135959;27;20115;-42
2022/01/19 06:59:05;;;;;;;;;;;21.50;47.00;;;;;;5136674;27;19927;-41
2022/01/19 07:01:33;;;;;;;;;;;21.50;47.00;;;;;;5136576;27;20394;-42
2022/01/19 07:04:02;;;;;;;;;;;21.50;46.90;;;;;;5136877;27;19969;-41
2022/01/19 07:06:29;;;;;;;;;;;21.50;46.90;;;;;;5136457;27;19927;-41
2022/01/19 07:08:56;;;;;;;;;;;21.50;46.90;;;;;;5136472;27;19923;-43
2022/01/19 07:11:23;;;;;;;;;;;21.50;46.90;;;;;;5136679;27;20291;-42
2022/01/19 07:13:50;;;;;;;;;;;21.60;47.00;;;;;;5135598;27;20015;-41
2022/01/19 07:16:17;;;;;;;;;;;21.50;46.90;;;;;;5136307;27;19924;-40
2022/01/19 07:18:44;;;;;;;;;;;21.50;46.80;;;;;;5136105;27;19923;-41
2022/01/19 07:21:12;;;;;;;;;;;21.60;46.90;;;;;;5136102;27;19924;-41
2022/01/19 07:23:39;;;;;;;;;;;21.60;46.90;;;;;;5136222;27;20014;-42
2022/01/19 07:26:06;;;;;;;;;;;21.50;46.80;;;;;;5136473;27;20343;-41
2022/01/19 07:28:33;;;;;;;;;;;21.60;46.90;;;;;;5135144;27;19923;-41
2022/01/19 07:31:00;;;;;;;;;;;21.60;46.80;;;;;;5135951;27;20366;-41
2022/01/19 07:33:31;;;;;;;;;;;21.60;46.80;;;;;;5136313;27;19924;-40
2022/01/19 07:35:58;;;;;;;;;;;21.60;46.80;;;;;;5136223;27;19969;-42
2022/01/19 07:38:26;;;;;;;;;;;21.60;46.80;;;;;;5136125;27;19963;-41
2022/01/19 07:40:54;;;;;;;;;;;21.60;46.80;;;;;;5136663;27;19958;-41
2022/01/19 07:43:21;;;;;;;;;;;21.60;46.80;;;;;;5134616;27;19929;-43
2022/01/19 07:45:49;;;;;;;;;;;21.60;46.80;;;;;;5135966;27;20302;-40
2022/01/19 07:48:16;;;;;;;;;;;21.60;46.70;;;;;;5135677;27;20379;-43
2022/01/19 07:50:43;;;;;;;;;;;21.60;46.70;;;;;;5135287;27;20362;-45
2022/01/19 07:53:10;;;;;;;;;;;21.60;46.70;;;;;;5135376;27;20363;-41
2022/01/19 07:55:37;;;;;;;;;;;21.60;46.70;;;;;;5135509;27;20112;-42
2022/01/19 07:58:05;;;;;;;;;;;21.60;46.70;;;;;;5134408;27;19924;-46
2022/01/19 08:00:38;;;;;;;;;;;21.60;46.60;;;;;;5135292;27;19946;-42
2022/01/19 08:03:05;;;;;;;;;;;21.60;46.60;;;;;;5135406;27;20474;-43
2022/01/19 08:05:33;;;;;;;;;;;21.60;46.60;;;;;;5135279;27;19923;-44
2022/01/19 08:08:02;;;;;;;;;;;21.60;46.60;;;;;;5135214;27;19924;-44
2022/01/19 08:10:30;;;;;;;;;;;21.60;46.50;;;;;;5136330;27;20298;-40
2022/01/19 08:13:01;;;;;;;;;;;21.60;46.50;;;;;;5116544;27;19931;-42
2022/01/19 08:15:29;;;;;;;;;;;21.60;46.50;;;;;;5135222;27;19935;-41
2022/01/19 08:17:56;;;;;;;;;;;21.60;46.40;;;;;;5135133;27;20378;-42
2022/01/19 08:20:24;;;;;;;;;;;21.60;46.40;;;;;;5134820;27;19970;-44
2022/01/19 08:22:51;;;;;;;;;;;21.60;46.40;;;;;;5135046;27;20336;-40
2022/01/19 08:25:18;;;;;;;;;;;21.60;46.40;;;;;;5134978;27;19967;-43
2022/01/19 08:27:46;;;;;;;;;;;21.60;46.40;;;;;;5134123;27;19928;-40
2022/01/19 08:30:13;;;;;;;;;;;21.70;46.40;;;;;;5134896;27;19923;-39
2022/01/19 08:32:42;;;;;;;;;;;21.60;46.30;;;;;;5135256;27;20301;-39
2022/01/19 08:35:09;;;;;;;;;;;21.60;46.30;;;;;;5135123;27;19930;-42
2022/01/19 08:37:36;;;;;;;;;;;21.70;46.40;;;;;;5134838;27;20387;-40
2022/01/19 08:40:05;;;;;;;;;;;21.70;46.30;;;;;;5134812;27;19923;-42
2022/01/19 08:42:33;;;;;;;;;;;21.70;46.30;;;;;;5135301;27;19968;-40
2022/01/19 08:45:05;;;;;;;;;;;21.70;46.20;;;;;;5135051;27;19923;-42
2022/01/19 08:47:33;;;;;;;;;;;21.70;46.20;;;;;;5135086;27;19977;-42
2022/01/19 08:50:03;;;;;;;;;;;21.70;46.20;;;;;;5135079;27;20397;-42
2022/01/19 08:52:31;;;;;;;;;;;21.70;46.20;;;;;;5134854;27;19923;-41
2022/01/19 08:54:58;;;;;;;;;;;21.70;46.20;;;;;;5135011;28;20018;-42
2022/01/19 08:57:25;;;;;;;;;;;21.70;46.10;;;;;;5134891;28;19931;-44
2022/01/19 08:59:52;;;;;;;;;;;21.70;46.10;;;;;;5133462;28;20439;-41
2022/01/19 09:02:19;;;;;;;;;;;21.70;46.10;;;;;;5134529;27;19959;-43
2022/01/19 09:04:46;;;;;;;;;;;21.70;46.00;;;;;;5138534;27;20294;-43
2022/01/19 09:07:14;;;;;;;;;;;21.80;46.10;;;;;;5138870;27;20406;-42
2022/01/19 09:09:41;;;;;;;;;;;21.80;46.00;;;;;;5139011;27;20271;-46
2022/01/19 09:12:08;;;;;;;;;;;21.80;46.00;;;;;;5138956;27;20335;-42
2022/01/19 09:14:35;;;;;;;;;;;21.80;46.00;;;;;;5137674;27;19931;-42
2022/01/19 09:17:07;;;;;;;;;;;21.80;45.90;;;;;;5138472;27;19970;-42
2022/01/19 09:19:39;;;;;;;;;;;21.80;45.90;;;;;;5138019;27;20371;-41
2022/01/19 09:22:07;;;;;;;;;;;21.80;45.80;;;;;;5138136;27;19924;-41
2022/01/19 09:24:35;;;;;;;;;;;21.80;45.80;;;;;;5120591;27;19988;-41
2022/01/19 09:27:03;;;;;;;;;;;21.80;45.80;;;;;;5138440;27;19924;-41
2022/01/19 09:29:30;;;;;;;;;;;21.90;45.80;;;;;;5137578;27;19924;-40
2022/01/19 09:32:00;;;;;;;;;;;21.90;45.70;;;;;;5138581;27;19924;-43
2022/01/19 09:34:28;;;;;;;;;;;21.90;45.70;;;;;;5138574;27;19923;-42
2022/01/19 09:36:55;;;;;;;;;;;21.90;45.60;;;;;;5138315;27;19949;-42
2022/01/19 09:39:23;;;;;;;;;;;22.00;45.70;;;;;;5138476;27;19924;-41
2022/01/19 09:41:51;;;;;;;;;;;22.00;45.60;;;;;;5138171;27;19924;-43
2022/01/19 09:44:19;;;;;;;;;;;22.00;45.60;;;;;;5137054;27;19927;-41
2022/01/19 09:46:47;;;;;;;;;;;22.00;45.50;;;;;;5138048;27;19949;-44
2022/01/19 09:49:15;;;;;;;;;;;22.00;45.50;;;;;;5137890;27;19923;-41
2022/01/19 09:51:43;;;;;;;;;;;22.00;45.50;;;;;;5138052;27;19931;-41
2022/01/19 09:54:14;;;;;;;;;;;22.00;45.40;;;;;;5138282;27;19930;-43
2022/01/19 09:56:42;;;;;;;;;;;22.10;45.50;;;;;;5137881;27;20014;-43
2022/01/19 09:59:09;;;;;;;;;;;22.10;45.40;;;;;;5136672;27;19935;-42
2022/01/19 10:01:47;;;;;;;;;;;22.10;45.40;;;;;;5138103;27;19923;-43
2022/01/19 10:04:20;;;;;;;;;;;22.10;45.30;;;;;;5138040;27;19976;-44
2022/01/19 10:06:47;;;;;;;;;;;22.10;45.30;;;;;;5138027;27;19924;-46
2022/01/19 10:09:22;;;;;;;;;;;22.10;45.30;;;;;;5137584;27;19971;-41
2022/01/19 10:17:10;;;;;;;;;;;22.20;45.30;;;;;;5137498;27;19930;-44
2022/01/19 10:19:38;;;;;;;;;;;22.20;45.30;;;;;;5137212;27;20337;-48
2022/01/19 10:22:11;;;;;;;;;;;22.20;45.20;;;;;;5137444;27;19927;-46
2022/01/19 10:24:48;;;;;;;;;;;22.20;45.20;;;;;;5136952;27;20219;-44
2022/01/19 10:27:21;;;;;;;;;;;22.20;45.10;;;;;;5137196;27;19923;-42
2022/01/19 10:29:53;;;;;;;;;;;22.20;45.10;;;;;;5128766;27;19924;-41
2022/01/19 10:32:22;;;;;;;;;;;22.20;45.10;;;;;;5137115;27;19972;-44
2022/01/19 10:34:51;;;;;;;;;;;22.20;45.10;;;;;;5138155;27;20112;-44
2022/01/19 10:37:22;;;;;;;;;;;22.20;45.00;;;;;;5137105;27;19923;-42
2022/01/19 10:39:50;;;;;;;;;;;22.20;45.00;;;;;;5137052;27;19927;-41
2022/01/19 10:42:18;;;;;;;;;;;22.20;45.00;;;;;;5137325;27;19924;-41
2022/01/19 10:44:50;;;;;;;;;;;22.20;44.90;;;;;;5136217;27;19992;-41
2022/01/19 10:47:56;;;;;;;;;;;22.30;45.00;;;;;;5137149;27;19923;-45
2022/01/19 10:50:25;;;;;;;;;;;22.30;44.90;;;;;;5137006;27;20276;-42
2022/01/19 10:52:53;;;;;;;;;;;22.30;44.90;;;;;;5136998;27;20368;-41
2022/01/19 10:55:20;;;;;;;;;;;22.30;44.90;;;;;;5136773;27;19924;-44
2022/01/19 10:57:48;;;;;;;;;;;22.30;44.90;;;;;;5136728;27;19982;-41
2022/01/19 11:00:36;;;;;;;;;;;22.30;44.80;;;;;;5135692;27;19930;-42
2022/01/19 11:03:14;;;;;;;;;;;22.40;44.80;;;;;;5136976;27;19963;-43
2022/01/19 11:05:43;;;;;;;;;;;22.40;44.80;;;;;;5136561;27;19923;-41
2022/01/19 11:08:11;;;;;;;;;;;22.40;44.80;;;;;;5136533;27;19969;-41
2022/01/19 11:10:38;;;;;;;;;;;22.40;44.70;;;;;;5136727;27;19928;-42
2022/01/19 11:13:13;;;;;;;;;;;22.40;44.70;;;;;;5136449;27;19970;-42
2022/01/19 11:15:41;;;;;;;;;;;22.40;44.70;;;;;;5135413;27;19931;-42
2022/01/19 11:18:09;;;;;;;;;;;22.40;44.70;;;;;;5136477;27;20336;-45
2022/01/19 11:20:43;;;;;;;;;;;22.40;44.60;;;;;;5136022;27;19930;-43
2022/01/19 11:23:22;;;;;;;;;;;22.40;45.20;;;;;;5136244;27;19924;-41
2022/01/19 11:25:51;;;;;;;;;;;22.40;44.60;;;;;;5135853;27;20372;-41
2022/01/19 11:28:33;;;;;;;;;;;22.40;44.60;;;;;;5136091;27;20018;-43
2022/01/19 11:31:06;;;;;;;;;;;22.40;44.60;;;;;;5135257;27;20330;-40
2022/01/19 11:33:40;;;;;;;;;;;22.40;44.60;;;;;;5136374;27;19923;-41
2022/01/19 11:36:17;;;;;;;;;;;22.40;44.60;;;;;;5136918;27;19968;-41
2022/01/19 11:38:46;;;;;;;;;;;22.40;44.50;;;;;;5135956;27;19949;-40
2022/01/19 11:41:13;;;;;;;;;;;22.40;44.50;;;;;;5136176;27;19974;-42
2022/01/19 11:44:09;;;;;;;;;;;22.40;44.60;;;;;;5136109;27;19930;-44
2022/01/19 11:46:40;;;;;;;;;;;22.40;44.50;;;;;;5032067;28;19931;-41
2022/01/19 11:49:09;;;;;;;;;;;22.40;44.50;;;;;;5032411;28;19925;-42
2022/01/19 11:51:38;;;;;;;;;;;22.40;44.50;;;;;;5032484;28;19925;-42
2022/01/19 11:54:10;;;;;;;;;;;22.40;44.50;;;;;;5032545;28;19925;-40
2022/01/19 11:56:55;;;;;;;;;;;22.40;44.40;;;;;;5032461;28;19965;-41
2022/01/19 11:59:25;;;;;;;;;;;22.40;44.40;;;;;;5016165;28;19929;-42
2022/01/19 12:01:52;;;;;;;;;;;22.40;44.40;;;;;;5031583;28;20393;-45
2022/01/19 12:04:20;;;;;;;;;;;22.50;44.50;;;;;;5032516;28;20040;-43
2022/01/19 12:06:49;;;;;;;;;;;22.50;44.50;;;;;;5032301;28;20377;-41
2022/01/19 12:09:17;;;;;;;;;;;22.50;44.50;;;;;;5032262;28;19971;-41
2022/01/19 12:11:51;;;;;;;;;;;22.40;44.40;;;;;;5032095;28;19925;-41
2022/01/19 12:14:33;;;;;;;;;;;22.50;44.50;;;;;;5032189;28;20032;-42
2022/01/19 12:17:15;;;;;;;;;;;22.50;44.40;;;;;;5031431;28;20332;-42
2022/01/19 12:19:43;;;;;;;;;;;22.50;44.40;;;;;;5025124;28;19996;-42
2022/01/19 12:22:25;;;;;;;;;;;22.50;44.40;;;;;;5023593;28;20298;-43
2022/01/19 12:24:57;;;;;;;;;;;22.50;44.40;;;;;;5094348;28;19955;-41
2022/01/19 12:27:26;;;;;;;;;;;22.50;44.40;;;;;;5094480;28;20019;-44
2022/01/19 12:30:02;;;;;;;;;;;22.50;44.50;;;;;;5076256;28;19924;-41
2022/01/19 12:32:42;;;;;;;;;;;22.50;44.50;;;;;;5114538;28;20341;-41
2022/01/19 12:35:23;;;;;;;;;;;22.50;44.50;;;;;;5114688;28;19971;-42
2022/01/19 12:37:52;;;;;;;;;;;22.50;44.50;;;;;;5113725;28;19924;-43
2022/01/19 12:40:19;;;;;;;;;;;22.40;44.50;;;;;;5114240;28;19949;-41
2022/01/19 12:42:50;;;;;;;;;;;22.40;44.40;;;;;;5096557;28;19930;-40
2022/01/19 12:45:17;;;;;;;;;;;22.50;44.50;;;;;;5111895;28;20391;-41
2022/01/19 12:47:54;;;;;;;;;;;22.40;44.50;;;;;;5094158;28;19925;-40
2022/01/19 12:50:28;;;;;;;;;;;22.40;44.50;;;;;;5093720;28;19924;-41
2022/01/19 12:52:59;;;;;;;;;;;22.50;44.60;;;;;;5093551;28;19928;-44
2022/01/19 12:55:30;;;;;;;;;;;22.50;44.50;;;;;;5094664;28;19924;-41
2022/01/19 12:57:57;;;;;;;;;;;22.50;44.50;;;;;;5093703;28;20018;-41
2022/01/19 13:00:26;;;;;;;;;;;22.50;44.50;;;;;;5095261;28;19924;-43
2022/01/19 13:02:53;;;;;;;;;;;22.50;44.50;;;;;;5114090;28;19924;-41
2022/01/19 13:05:21;;;;;;;;;;;22.50;44.50;;;;;;5114074;28;20012;-43
2022/01/19 13:07:55;;;;;;;;;;;22.50;44.50;;;;;;5098205;28;19924;-43
2022/01/19 13:10:41;;;;;;;;;;;22.50;44.50;;;;;;5093931;28;19924;-44
2022/01/19 13:13:12;;;;;;;;;;;22.50;44.50;;;;;;5093973;28;19974;-50
2022/01/19 13:15:39;;;;;;;;;;;22.50;44.50;;;;;;5096327;28;19928;-48
2022/01/19 13:18:06;;;;;;;;;;;22.50;44.50;;;;;;5113838;28;19982;-50
2022/01/19 13:20:33;;;;;;;;;;;22.50;44.50;;;;;;5106350;28;19978;-44
2022/01/19 13:23:00;;;;;;;;;;;22.50;44.50;;;;;;5114062;28;20011;-51
2022/01/19 13:25:29;;;;;;;;;;;22.50;44.50;;;;;;5114241;28;19931;-45
2022/01/19 13:27:57;;;;;;;;;;;22.50;44.50;;;;;;5113898;28;20014;-45
2022/01/19 13:30:25;;;;;;;;;;;22.50;44.40;;;;;;5113826;28;20391;-44
2022/01/19 13:32:53;;;;;;;;;;;22.50;44.40;;;;;;5112923;28;19974;-44
2022/01/19 13:35:21;;;;;;;;;;;22.50;44.40;;;;;;5113823;28;20019;-48
2022/01/19 13:37:56;;;;;;;;;;;22.50;44.40;;;;;;5114121;28;19924;-43
2022/01/19 13:40:31;;;;;;;;;;;22.50;44.40;;;;;;5114102;28;20006;-41
2022/01/19 13:43:10;;;;;;;;;;;22.60;44.50;;;;;;5114106;28;19931;-42
2022/01/19 13:50:48;;;;;;;;;;;22.60;44.40;;;;;;5096674;28;19985;-42
2022/01/19 13:53:23;;;;;;;;;;;22.60;44.40;;;;;;5097171;28;20023;-40
2022/01/19 13:55:50;;;;;;;;;;;22.60;44.40;;;;;;5097064;28;19924;-43
2022/01/19 13:58:17;;;;;;;;;;;22.60;44.40;;;;;;5095816;28;19924;-41
2022/01/19 14:00:50;;;;;;;;;;;22.60;44.40;;;;;;5097251;28;20299;-41
2022/01/19 14:03:18;;;;;;;;;;;22.60;44.40;;;;;;5096926;28;19925;-42
2022/01/19 14:05:47;;;;;;;;;;;22.60;44.40;;;;;;5097160;28;19930;-42
2022/01/19 14:08:14;;;;;;;;;;;22.60;44.40;;;;;;5097123;28;19924;-41
2022/01/19 14:10:43;;;;;;;;;;;22.60;44.40;;;;;;5096796;28;19975;-42
2022/01/19 14:13:22;;;;;;;;;;;22.60;44.40;;;;;;5095744;28;19959;-42
2022/01/19 14:15:49;;;;;;;;;;;22.60;44.40;;;;;;5096607;28;19979;-41
2022/01/19 14:18:17;;;;;;;;;;;22.60;44.40;;;;;;5114739;28;19973;-41
2022/01/19 14:20:44;;;;;;;;;;;22.60;44.40;;;;;;5132504;27;19978;-43
2022/01/19 14:23:15;;;;;;;;;;;22.60;44.40;;;;;;5137568;27;20371;-44
2022/01/19 14:25:43;;;;;;;;;;;22.60;44.40;;;;;;5138268;27;19991;-43
2022/01/19 14:28:15;;;;;;;;;;;22.60;44.40;;;;;;5137643;27;19966;-44
2022/01/19 14:30:42;;;;;;;;;;;22.60;44.40;;;;;;5137629;27;19927;-48
2022/01/19 14:33:29;;;;;;;;;;;22.60;44.40;;;;;;5136157;27;19927;-42
2022/01/19 14:35:57;;;;;;;;;;;22.60;44.40;;;;;;5137147;27;19923;-42
2022/01/19 14:38:37;;;;;;;;;;;22.60;44.40;;;;;;5119451;27;19961;-44
2022/01/19 14:41:07;;;;;;;;;;;22.70;44.50;;;;;;5137443;27;19935;-42
2022/01/19 14:43:40;;;;;;;;;;;22.70;44.50;;;;;;5137059;27;19924;-44
2022/01/19 14:46:12;;;;;;;;;;;22.60;44.40;;;;;;5137391;27;20324;-43
2022/01/19 14:48:44;;;;;;;;;;;22.60;44.40;;;;;;5135888;27;19980;-44
2022/01/19 14:51:25;;;;;;;;;;;22.60;44.40;;;;;;5137177;27;19924;-42
2022/01/19 14:53:59;;;;;;;;;;;22.70;44.50;;;;;;5137014;27;19927;-45
2022/01/19 14:56:27;;;;;;;;;;;22.60;44.40;;;;;;5137063;27;19927;-44
2022/01/19 14:59:00;;;;;;;;;;;22.70;44.50;;;;;;5137004;27;20283;-43
2022/01/19 15:01:27;;;;;;;;;;;22.70;44.50;;;;;;5135961;27;20271;-41
2022/01/19 15:03:55;;;;;;;;;;;22.70;44.50;;;;;;5136107;27;20274;-45
2022/01/19 15:06:22;;;;;;;;;;;22.60;44.50;;;;;;5136917;27;19924;-43
2022/01/19 15:08:50;;;;;;;;;;;22.60;44.60;;;;;;5136559;27;20397;-45
2022/01/19 15:11:18;;;;;;;;;;;22.60;44.60;;;;;;5136791;27;19955;-47
2022/01/19 15:13:45;;;;;;;;;;;22.60;44.50;;;;;;5136428;27;19927;-44
2022/01/19 15:16:13;;;;;;;;;;;22.60;44.50;;;;;;5136741;27;20290;-44
2022/01/19 15:18:40;;;;;;;;;;;22.60;44.60;;;;;;5135564;27;19923;-48
2022/01/19 15:21:07;;;;;;;;;;;22.60;44.60;;;;;;5136156;27;19928;-49
2022/01/19 15:23:35;;;;;;;;;;;22.60;44.60;;;;;;5136418;27;20290;-42
2022/01/19 15:26:02;;;;;;;;;;;22.60;44.60;;;;;;5136517;27;19954;-47
2022/01/19 15:28:29;;;;;;;;;;;22.60;44.60;;;;;;5136191;27;19923;-44
2022/01/19 15:30:57;;;;;;;;;;;22.60;44.60;;;;;;5136426;27;19923;-45
2022/01/19 15:33:24;;;;;;;;;;;22.60;44.70;;;;;;5134878;27;20409;-47
2022/01/19 15:35:51;;;;;;;;;;;22.60;44.70;;;;;;5136321;27;19923;-45
2022/01/19 15:38:18;;;;;;;;;;;22.60;44.70;;;;;;5136262;27;19946;-50
2022/01/19 15:40:46;;;;;;;;;;;22.60;44.70;;;;;;5136243;27;19962;-42
2022/01/19 15:43:18;;;;;;;;;;;22.60;44.70;;;;;;5135905;27;19924;-41
2022/01/19 15:45:46;;;;;;;;;;;22.60;44.70;;;;;;5136185;27;19968;-41
2022/01/19 15:48:16;;;;;;;;;;;22.60;44.70;;;;;;5134858;27;20038;-41
2022/01/19 15:50:47;;;;;;;;;;;22.60;44.70;;;;;;5136034;27;19924;-41
2022/01/19 15:53:15;;;;;;;;;;;22.60;44.80;;;;;;5135448;27;20271;-41
2022/01/19 15:55:42;;;;;;;;;;;22.50;44.70;;;;;;5135638;27;19924;-41
2022/01/19 15:58:13;;;;;;;;;;;22.50;44.70;;;;;;5135971;27;19976;-40
2022/01/19 16:00:40;;;;;;;;;;;22.50;44.80;;;;;;5135524;27;19934;-42
2022/01/19 16:03:07;;;;;;;;;;;22.50;44.80;;;;;;5134734;27;19924;-41
2022/01/19 16:05:35;;;;;;;;;;;22.50;44.80;;;;;;5135481;27;19969;-41
2022/01/19 16:08:03;;;;;;;;;;;22.50;45.40;;;;;;5117274;27;19923;-42
2022/01/19 16:10:30;;;;;;;;;;;22.50;44.80;;;;;;5135649;27;19927;-44